Time;durP1;ratioP1;P1;durP2;ratioP2;P2;SDS_P1;SDS_P2;PMS_P1;PMS_P2;Temp;Humidity;BMP_temperature;BMP_pressure;BME280_temperature;BME280_humidity;BME280_pressure;Samples;Min_cycle;Max_cycle;Signal;HPM_P1;HPM_P2
2022/11/21 00:01:28;;;;;;;13.82;6.28;;;2.10;99.90;;;;;;5006267;28;20514;-65
2022/11/21 00:03:55;;;;;;;15.05;6.07;;;2.00;99.90;;;;;;5017644;28;20533;-62
2022/11/21 00:06:23;;;;;;;20.02;5.80;;;2.00;99.90;;;;;;5027351;28;20037;-62
2022/11/21 00:08:51;;;;;;;10.25;4.90;;;2.00;99.90;;;;;;5029077;28;20046;-61
2022/11/21 00:11:18;;;;;;;9.95;5.18;;;1.90;99.90;;;;;;5027735;28;20049;-62
2022/11/21 00:13:46;;;;;;;12.98;5.82;;;1.90;99.90;;;;;;5027236;28;20061;-61
2022/11/21 00:16:16;;;;;;;15.27;6.68;;;1.80;99.90;;;;;;5011602;28;20050;-62
2022/11/21 00:18:43;;;;;;;13.73;5.25;;;1.80;99.90;;;;;;5027769;28;20057;-61
2022/11/21 00:21:13;;;;;;;13.65;4.43;;;1.80;99.90;;;;;;5029139;28;20482;-61
2022/11/21 00:23:45;;;;;;;14.07;5.07;;;1.80;99.90;;;;;;5028534;28;20053;-61
2022/11/21 00:26:15;;;;;;;11.63;5.03;;;1.90;99.90;;;;;;5012547;28;20422;-66
2022/11/21 00:28:44;;;;;;;14.32;4.93;;;1.90;99.90;;;;;;4997899;28;20041;-61
2022/11/21 00:31:21;;;;;;;10.02;4.65;;;1.90;99.90;;;;;;5009941;28;20407;-60
2022/11/21 00:33:49;;;;;;;11.23;4.40;;;1.90;99.90;;;;;;5019401;28;20046;-62
2022/11/21 00:36:17;;;;;;;10.98;4.80;;;1.90;99.90;;;;;;5028168;28;20053;-62
2022/11/21 00:38:45;;;;;;;10.88;4.55;;;1.90;99.90;;;;;;5028185;28;20041;-60
2022/11/21 00:41:13;;;;;;;16.80;5.35;;;1.80;99.90;;;;;;5022350;28;20052;-61
2022/11/21 00:43:43;;;;;;;9.07;4.88;;;1.70;99.90;;;;;;5012027;28;20053;-62
2022/11/21 00:46:11;;;;;;;13.68;4.25;;;1.60;99.90;;;;;;5021257;28;20048;-62
2022/11/21 00:48:38;;;;;;;10.25;4.93;;;1.60;99.90;;;;;;5017013;28;20049;-67
2022/11/21 00:51:06;;;;;;;11.25;4.90;;;1.50;99.90;;;;;;5018054;28;20525;-63
2022/11/21 00:53:33;;;;;;;10.07;4.18;;;1.50;99.90;;;;;;5018105;28;20049;-63
2022/11/21 00:56:02;;;;;;;7.70;4.30;;;1.50;99.90;;;;;;5028164;28;20057;-61
2022/11/21 00:58:30;;;;;;;13.07;4.47;;;1.50;99.90;;;;;;5027393;28;20068;-61
2022/11/21 01:01:10;;;;;;;11.80;4.47;;;1.40;99.90;;;;;;5028719;28;20048;-61
2022/11/21 01:03:39;;;;;;;15.27;4.47;;;1.40;99.90;;;;;;5014068;28;20050;-61
2022/11/21 01:06:09;;;;;;;16.05;4.85;;;1.20;99.90;;;;;;5008598;28;20053;-60
2022/11/21 01:08:39;;;;;;;10.10;3.97;;;1.20;99.90;;;;;;5028151;28;20046;-62
2022/11/21 01:11:11;;;;;;;15.65;5.85;;;1.20;99.90;;;;;;5025531;28;20489;-61
2022/11/21 01:13:39;;;;;;;18.50;5.13;;;1.20;99.90;;;;;;5019666;28;20076;-61
2022/11/21 01:16:12;;;;;;;18.40;5.63;;;1.20;99.90;;;;;;5018624;28;20054;-61
2022/11/21 01:18:40;;;;;;;11.82;5.82;;;1.20;99.90;;;;;;5025261;28;20535;-61
2022/11/21 01:21:22;;;;;;;16.45;5.70;;;1.10;99.90;;;;;;5007506;28;20064;-61
2022/11/21 01:23:51;;;;;;;15.05;5.05;;;1.20;99.90;;;;;;5017541;28;20386;-61
2022/11/21 01:26:24;;;;;;;14.80;5.30;;;1.10;99.90;;;;;;5010172;28;20046;-62
2022/11/21 01:28:52;;;;;;;13.05;5.57;;;1.20;99.90;;;;;;5014694;28;20045;-61
2022/11/21 01:31:22;;;;;;;12.25;5.55;;;1.20;99.90;;;;;;5020553;28;20485;-61
2022/11/21 01:33:51;;;;;;;16.88;6.50;;;1.20;99.90;;;;;;5023094;28;20064;-61
2022/11/21 01:36:30;;;;;;;13.45;4.80;;;1.20;99.90;;;;;;5027879;28;20048;-62
2022/11/21 01:39:01;;;;;;;9.82;5.30;;;1.20;99.90;;;;;;5021029;28;20068;-62
2022/11/21 01:41:32;;;;;;;22.13;4.93;;;1.20;99.90;;;;;;5024925;28;20383;-62
2022/11/21 01:44:02;;;;;;;14.55;5.80;;;1.20;99.90;;;;;;5022427;28;20042;-61
2022/11/21 01:46:30;;;;;;;16.17;5.68;;;;;;;;;;5008273;28;20042;-62
2022/11/21 01:49:04;;;;;;;17.67;4.40;;;1.30;99.90;;;;;;5023680;28;20049;-74
2022/11/21 01:51:41;;;;;;;9.15;4.68;;;1.30;99.90;;;;;;5021367;28;20638;-73
2022/11/21 01:54:29;;;;;;;7.82;4.15;;;1.30;99.90;;;;;;5026946;28;20437;-71
2022/11/21 01:57:06;;;;;;;11.50;4.35;;;1.30;99.90;;;;;;5010844;28;20065;-75
2022/11/21 01:59:48;;;;;;;9.38;4.50;;;1.30;99.90;;;;;;5009770;28;20054;-74
2022/11/21 02:02:19;;;;;;;13.48;4.55;;;1.40;99.90;;;;;;5025946;28;20052;-76
2022/11/21 02:04:48;;;;;;;17.77;5.50;;;1.40;99.90;;;;;;5024686;28;20061;-62
2022/11/21 02:07:19;;;;;;;13.38;5.10;;;1.50;99.90;;;;;;5027056;28;20816;-61
2022/11/21 02:09:59;;;;;;;12.10;4.60;;;1.50;99.90;;;;;;5027008;28;20512;-61
2022/11/21 02:12:42;;;;;;;18.83;5.05;;;1.60;99.90;;;;;;5020687;28;20072;-62
2022/11/21 02:15:10;;;;;;;13.93;5.38;;;1.70;99.90;;;;;;5008074;28;20053;-61
2022/11/21 02:17:38;;;;;;;15.30;5.47;;;1.80;99.90;;;;;;5008276;28;20410;-62
2022/11/21 02:20:09;;;;;;;18.98;5.65;;;1.80;99.90;;;;;;5027249;28;20049;-61
2022/11/21 02:23:06;;;;;;;16.55;4.93;;;1.90;99.90;;;;;;5009759;28;20643;-61
2022/11/21 02:25:36;;;;;;;14.50;4.53;;;1.90;99.90;;;;;;5026467;28;20049;-61
2022/11/21 02:28:14;;;;;;;11.85;4.57;;;1.90;99.90;;;;;;5014823;28;20061;-64
2022/11/21 02:30:42;;;;;;;21.25;5.38;;;1.90;99.90;;;;;;5006465;28;20050;-63
2022/11/21 02:33:11;;;;;;;10.35;4.45;;;1.90;99.90;;;;;;5014708;28;20078;-62
2022/11/21 02:35:39;;;;;;;21.17;5.77;;;2.00;99.90;;;;;;5020016;28;20520;-63
2022/11/21 02:38:19;;;;;;;14.75;4.68;;;1.90;99.90;;;;;;5018784;28;20317;-61
2022/11/21 02:41:08;;;;;;;18.90;4.85;;;2.00;99.90;;;;;;5029609;28;20386;-61
2022/11/21 02:43:51;;;;;;;14.15;4.80;;;2.00;99.90;;;;;;5018592;28;20053;-62
2022/11/21 02:46:18;;;;;;;15.35;4.45;;;2.00;99.90;;;;;;5021092;28;20417;-63
2022/11/21 02:48:46;;;;;;;14.27;4.07;;;2.00;99.90;;;;;;5017633;28;20053;-61
2022/11/21 02:51:13;;;;;;;15.10;3.95;;;2.00;99.90;;;;;;5022519;28;20053;-61
2022/11/21 02:53:41;;;;;;;9.45;3.97;;;2.00;99.90;;;;;;5023258;28;20401;-63
2022/11/21 02:56:08;;;;;;;10.40;4.63;;;2.00;99.90;;;;;;5028807;28;20042;-64
2022/11/21 02:58:36;;;;;;;10.50;4.22;;;2.00;99.90;;;;;;5026479;28;20056;-72
2022/11/21 03:01:04;;;;;;;12.68;4.10;;;2.00;99.90;;;;;;5030605;28;20053;-72
2022/11/21 03:03:32;;;;;;;18.20;5.10;;;2.00;99.90;;;;;;5026028;28;20054;-68
2022/11/21 03:05:59;;;;;;;10.88;4.00;;;2.10;99.90;;;;;;5013330;28;20382;-75
2022/11/21 03:08:27;;;;;;;13.80;3.45;;;2.00;99.90;;;;;;5030492;28;20071;-62
2022/11/21 03:10:54;;;;;;;9.95;3.70;;;2.00;99.90;;;;;;5029051;28;20049;-76
2022/11/21 03:13:22;;;;;;;17.80;4.10;;;2.00;99.90;;;;;;5029439;28;20485;-72
2022/11/21 03:15:49;;;;;;;17.50;4.20;;;2.00;99.90;;;;;;5027240;28;20037;-74
2022/11/21 03:18:17;;;;;;;11.35;3.80;;;2.00;99.90;;;;;;5028015;28;20048;-73
2022/11/21 03:20:44;;;;;;;7.03;3.83;;;2.00;99.90;;;;;;5014669;28;20061;-75
2022/11/21 03:23:12;;;;;;;15.43;4.38;;;2.10;99.90;;;;;;5014667;28;20042;-77
2022/11/21 03:25:39;;;;;;;9.40;4.35;;;2.10;99.90;;;;;;5019339;28;20057;-75
2022/11/21 03:28:07;;;;;;;9.25;3.90;;;2.10;99.90;;;;;;5016957;28;20073;-75
2022/11/21 03:30:34;;;;;;;12.52;3.88;;;2.10;99.90;;;;;;5025047;28;20037;-76
2022/11/21 03:33:02;;;;;;;14.93;4.35;;;2.10;99.90;;;;;;5034712;28;20041;-78
2022/11/21 03:35:29;;;;;;;14.90;4.43;;;2.10;99.90;;;;;;5019897;28;20049;-74
2022/11/21 03:37:57;;;;;;;19.83;5.07;;;2.10;99.90;;;;;;5025070;28;20046;-73
2022/11/21 03:40:25;;;;;;;10.90;3.70;;;2.20;99.90;;;;;;5018438;28;20046;-63
2022/11/21 03:42:52;;;;;;;9.88;3.75;;;2.20;99.90;;;;;;5012963;28;20042;-62
2022/11/21 03:45:20;;;;;;;12.73;3.80;;;2.20;99.90;;;;;;5027413;28;20072;-61
2022/11/21 03:47:47;;;;;;;10.18;3.65;;;2.30;99.90;;;;;;5021039;28;20430;-61
2022/11/21 03:50:17;;;;;;;14.40;3.70;;;2.30;99.90;;;;;;5015461;28;20050;-62
2022/11/21 03:52:45;;;;;;;18.45;4.20;;;2.30;99.90;;;;;;5011895;28;20060;-64
2022/11/21 03:55:14;;;;;;;10.85;4.00;;;2.50;99.90;;;;;;5012922;28;20049;-63
2022/11/21 03:57:41;;;;;;;12.77;3.15;;;2.40;99.90;;;;;;5022132;28;20053;-61
2022/11/21 04:00:09;;;;;;;10.02;3.00;;;2.50;99.90;;;;;;5013004;28;20052;-61
2022/11/21 04:02:37;;;;;;;10.95;3.00;;;2.50;99.90;;;;;;5012793;28;20046;-62
2022/11/21 04:05:05;;;;;;;9.65;3.20;;;2.50;99.90;;;;;;5012590;28;20042;-61
2022/11/21 04:07:32;;;;;;;9.20;3.17;;;2.60;99.90;;;;;;5031060;28;20045;-61
2022/11/21 04:10:00;;;;;;;15.20;2.90;;;2.60;99.90;;;;;;5031595;28;20080;-62
2022/11/21 04:12:27;;;;;;;6.07;2.53;;;2.60;99.90;;;;;;5012700;28;20197;-62
2022/11/21 04:14:55;;;;;;;15.52;3.72;;;2.70;99.90;;;;;;5015062;28;20058;-63
2022/11/21 04:17:22;;;;;;;21.55;3.35;;;2.70;99.90;;;;;;5012697;28;20053;-63
2022/11/21 04:19:50;;;;;;;11.20;2.95;;;2.70;99.90;;;;;;5012478;28;20050;-61
2022/11/21 04:22:17;;;;;;;13.00;3.72;;;2.80;99.90;;;;;;5012617;28;20050;-61
2022/11/21 04:24:45;;;;;;;8.27;2.83;;;2.80;99.90;;;;;;5012460;28;20046;-62
2022/11/21 04:27:12;;;;;;;13.40;3.28;;;2.80;99.90;;;;;;5010488;28;20042;-63
2022/11/21 04:29:40;;;;;;;25.17;5.30;;;2.70;99.90;;;;;;5030244;28;20042;-62
2022/11/21 04:32:07;;;;;;;11.05;3.20;;;2.80;99.90;;;;;;5028526;28;20044;-61
2022/11/21 04:34:35;;;;;;;14.52;3.78;;;2.70;99.90;;;;;;5029021;28;20481;-76
2022/11/21 04:37:02;;;;;;;10.85;3.38;;;2.70;99.90;;;;;;5030980;28;20485;-76
2022/11/21 04:39:37;;;;;;;8.93;2.95;;;2.70;99.90;;;;;;5030869;28;20042;-63
2022/11/21 04:42:05;;;;;;;11.85;3.60;;;2.80;99.90;;;;;;5029426;28;20053;-63
2022/11/21 04:44:32;;;;;;;16.42;3.75;;;2.70;99.90;;;;;;5020279;28;20052;-61
2022/11/21 04:47:00;;;;;;;21.27;3.92;;;2.70;99.90;;;;;;5029104;28;20045;-64
2022/11/21 04:49:32;;;;;;;9.85;2.53;;;2.70;99.90;;;;;;5022083;28;20050;-61
2022/11/21 04:51:59;;;;;;;16.40;3.13;;;2.80;99.90;;;;;;5023559;28;20045;-62
2022/11/21 04:54:27;;;;;;;16.38;3.20;;;2.80;99.90;;;;;;5027694;28;20053;-61
2022/11/21 04:56:55;;;;;;;16.77;3.35;;;2.70;99.90;;;;;;5028541;28;20049;-62
2022/11/21 04:59:23;;;;;;;11.05;3.17;;;2.80;99.90;;;;;;5020798;28;20045;-61
2022/11/21 05:01:51;;;;;;;10.18;2.65;;;2.80;99.90;;;;;;5029591;28;20045;-67
2022/11/21 05:04:18;;;;;;;25.77;3.40;;;2.90;99.90;;;;;;5027849;28;20060;-61
2022/11/21 05:06:46;;;;;;;13.23;3.22;;;2.80;99.90;;;;;;5023176;28;20053;-60
2022/11/21 05:09:13;;;;;;;18.85;4.18;;;2.90;99.90;;;;;;5021786;28;20061;-61
2022/11/21 05:14:27;;;;;;;21.92;3.78;;;2.90;99.90;;;;;;5016655;28;20054;-61
2022/11/21 05:16:55;;;;;;;18.38;4.43;;;2.90;99.90;;;;;;5030576;28;20049;-61
2022/11/21 05:19:23;;;;;;;12.90;3.97;;;2.90;99.90;;;;;;5027680;28;20060;-61
2022/11/21 05:21:50;;;;;;;19.92;4.30;;;3.10;99.90;;;;;;5012376;28;20489;-61
2022/11/21 05:24:18;;;;;;;23.27;4.72;;;3.00;99.90;;;;;;5030373;28;20050;-60
2022/11/21 05:26:45;;;;;;;17.80;4.40;;;3.10;99.90;;;;;;5030481;28;20041;-61
2022/11/21 05:29:13;;;;;;;17.48;5.38;;;3.10;99.90;;;;;;5030238;28;20409;-61
2022/11/21 05:31:40;;;;;;;23.50;5.13;;;3.20;99.90;;;;;;5030296;28;20045;-61
2022/11/21 05:34:08;;;;;;;20.35;5.07;;;3.20;99.90;;;;;;5025955;28;20054;-61
2022/11/21 05:36:35;;;;;;;21.67;5.20;;;3.20;99.90;;;;;;5029346;28;20046;-65
2022/11/21 05:39:03;;;;;;;15.02;4.75;;;3.20;99.90;;;;;;5029979;28;20393;-61
2022/11/21 05:41:31;;;;;;;18.50;5.03;;;3.20;99.90;;;;;;5032467;28;20401;-61
2022/11/21 05:43:58;;;;;;;16.13;5.40;;;3.20;99.90;;;;;;5020291;28;20049;-61
2022/11/21 05:46:26;;;;;;;18.17;4.63;;;3.30;99.90;;;;;;5018193;28;20064;-67
2022/11/21 05:48:54;;;;;;;19.52;4.90;;;3.30;99.90;;;;;;5021763;28;20056;-67
2022/11/21 05:51:22;;;;;;;17.77;5.78;;;3.30;99.90;;;;;;5023937;28;20402;-65
2022/11/21 05:53:49;;;;;;;22.52;6.03;;;3.30;99.90;;;;;;5017676;28;20064;-65
2022/11/21 05:56:18;;;;;;;19.95;5.70;;;3.30;99.90;;;;;;5022989;28;20050;-61
2022/11/21 05:58:46;;;;;;;19.65;5.63;;;3.30;99.90;;;;;;5022573;28;20052;-60
2022/11/21 06:01:14;;;;;;;25.00;6.03;;;3.30;99.90;;;;;;5030189;28;20052;-67
2022/11/21 06:03:42;;;;;;;19.92;5.40;;;3.40;99.90;;;;;;5016098;28;20490;-61
2022/11/21 06:06:12;;;;;;;16.27;5.78;;;3.30;99.90;;;;;;5018033;28;20049;-61
2022/11/21 06:08:45;;;;;;;21.70;7.55;;;3.40;99.90;;;;;;5027417;28;20046;-62
2022/11/21 06:11:15;;;;;;;27.02;7.63;;;3.40;99.90;;;;;;5011143;28;20409;-68
2022/11/21 06:13:43;;;;;;;31.92;7.95;;;3.40;99.90;;;;;;5013979;28;20425;-62
2022/11/21 06:16:13;;;;;;;26.40;8.50;;;3.40;99.90;;;;;;5010517;28;20046;-62
2022/11/21 06:18:43;;;;;;;30.02;8.15;;;3.40;99.90;;;;;;5021699;28;20077;-62
2022/11/21 06:21:13;;;;;;;;;;;3.40;99.90;;;;;;5020205;28;20482;-60
2022/11/21 06:23:40;;;;;;;33.10;8.37;;;3.40;99.90;;;;;;5017291;28;20411;-60
2022/11/21 06:26:12;;;;;;;30.38;8.23;;;3.40;99.90;;;;;;5024608;28;20049;-62
2022/11/21 06:28:41;;;;;;;27.52;7.80;;;3.50;99.90;;;;;;5017898;28;20050;-60
2022/11/21 06:31:10;;;;;;;39.70;9.53;;;3.50;99.90;;;;;;5027523;28;20041;-61
2022/11/21 06:33:39;;;;;;;26.98;8.05;;;3.50;99.90;;;;;;5022344;28;20073;-60
2022/11/21 06:36:12;;;;;;;23.60;7.53;;;3.50;99.90;;;;;;5024864;28;20060;-65
2022/11/21 06:38:41;;;;;;;26.63;6.10;;;3.50;99.90;;;;;;5016202;28;20045;-64
2022/11/21 06:41:17;;;;;;;19.90;6.05;;;3.50;99.90;;;;;;5010094;28;20038;-61
2022/11/21 06:43:46;;;;;;;22.73;7.13;;;3.60;99.90;;;;;;5004637;28;20053;-61
2022/11/21 06:46:15;;;;;;;18.10;5.45;;;3.60;99.90;;;;;;5011127;28;20505;-63
2022/11/21 06:48:43;;;;;;;17.33;5.30;;;3.70;99.90;;;;;;5016225;28;20046;-64
2022/11/21 06:51:13;;;;;;;24.02;6.25;;;3.70;99.90;;;;;;5026141;28;20049;-63
2022/11/21 06:53:41;;;;;;;13.73;5.32;;;3.70;99.90;;;;;;5018832;28;20057;-62
2022/11/21 06:56:09;;;;;;;15.25;5.57;;;3.70;99.90;;;;;;5020651;28;20046;-61
2022/11/21 06:58:37;;;;;;;22.40;4.45;;;3.80;99.90;;;;;;5007871;28;20042;-60
2022/11/21 07:01:09;;;;;;;20.58;4.22;;;3.80;99.90;;;;;;5023116;28;20042;-67
2022/11/21 07:03:37;;;;;;;15.60;4.32;;;;;;;;;;5016482;28;20037;-63
2022/11/21 07:06:05;;;;;;;23.42;5.75;;;3.80;99.90;;;;;;5025138;28;20061;-62
2022/11/21 07:08:34;;;;;;;21.50;4.00;;;3.80;99.90;;;;;;5019494;28;20056;-73
2022/11/21 07:11:10;;;;;;;17.13;4.47;;;3.80;99.90;;;;;;5022016;28;20053;-73
2022/11/21 07:13:54;;;;;;;21.67;4.72;;;3.90;99.90;;;;;;5024583;28;20060;-73
2022/11/21 07:16:24;;;;;;;15.95;4.90;;;3.90;99.90;;;;;;5026913;28;20053;-62
2022/11/21 07:18:52;;;;;;;22.88;5.32;;;3.90;99.90;;;;;;5026370;28;20500;-61
2022/11/21 07:21:20;;;;;;;16.10;3.90;;;3.90;99.90;;;;;;5027258;28;20415;-62
2022/11/21 07:23:48;;;;;;;14.15;4.38;;;4.00;99.90;;;;;;5020365;28;20390;-61
2022/11/21 07:26:16;;;;;;;13.85;3.58;;;4.00;99.90;;;;;;5026796;28;20056;-61
2022/11/21 07:28:43;;;;;;;9.75;3.90;;;4.00;99.90;;;;;;5026437;28;20050;-61
2022/11/21 07:31:11;;;;;;;15.48;3.47;;;4.00;99.90;;;;;;5024094;28;20490;-61
2022/11/21 07:33:45;;;;;;;15.57;3.95;;;4.00;99.90;;;;;;5022201;28;20053;-61
2022/11/21 07:36:13;;;;;;;8.45;3.10;;;4.00;99.90;;;;;;5024674;28;20041;-61
2022/11/21 07:38:41;;;;;;;14.95;4.25;;;4.10;99.90;;;;;;5024129;28;20061;-62
2022/11/21 07:41:09;;;;;;;18.80;4.00;;;4.00;99.90;;;;;;5026413;28;20056;-61
2022/11/21 07:43:36;;;;;;;22.58;4.75;;;4.10;99.90;;;;;;5017167;28;20504;-61
2022/11/21 07:46:04;;;;;;;5.20;3.17;;;4.10;99.90;;;;;;5022435;28;20053;-62
2022/11/21 07:48:32;;;;;;;19.88;4.50;;;4.10;99.90;;;;;;5007377;28;20042;-62
2022/11/21 07:51:03;;;;;;;20.00;4.97;;;4.10;99.90;;;;;;5014362;28;20045;-62
2022/11/21 07:53:31;;;;;;;19.35;4.65;;;4.10;99.90;;;;;;5019500;28;20497;-63
2022/11/21 07:55:59;;;;;;;18.75;4.60;;;4.10;99.90;;;;;;5022459;28;20052;-61
2022/11/21 07:58:27;;;;;;;19.52;5.03;;;4.20;99.90;;;;;;5008288;28;20053;-64
2022/11/21 08:00:55;;;;;;;19.85;5.60;;;4.10;99.90;;;;;;5014375;28;20486;-61
2022/11/21 08:03:24;;;;;;;18.00;5.15;;;4.10;99.90;;;;;;5010099;28;20448;-62
2022/11/21 08:05:51;;;;;;;12.57;4.73;;;4.10;99.90;;;;;;5005952;28;20489;-62
2022/11/21 08:08:19;;;;;;;15.88;5.15;;;4.10;99.90;;;;;;4998055;28;20049;-61
2022/11/21 08:10:47;;;;;;;21.15;5.35;;;4.20;99.90;;;;;;5007666;28;20072;-62
2022/11/21 08:13:15;;;;;;;20.60;6.05;;;4.20;99.90;;;;;;5017739;28;20362;-71
2022/11/21 08:15:43;;;;;;;22.83;4.25;;;4.20;99.90;;;;;;5004916;28;20052;-62
2022/11/21 08:18:12;;;;;;;31.33;5.85;;;4.30;99.90;;;;;;5015994;28;20062;-69
2022/11/21 08:20:40;;;;;;;13.55;4.55;;;4.30;99.90;;;;;;5025446;28;20527;-62
2022/11/21 08:23:09;;;;;;;18.38;4.55;;;4.30;99.90;;;;;;5022653;28;20467;-61
2022/11/21 08:25:39;;;;;;;19.67;5.47;;;4.40;99.90;;;;;;5018997;28;20532;-62
2022/11/21 08:28:08;;;;;;;17.52;5.30;;;4.40;99.90;;;;;;5007970;28;20046;-61
2022/11/21 08:30:37;;;;;;;20.20;5.10;;;4.50;99.90;;;;;;5005684;28;20046;-61
2022/11/21 08:33:06;;;;;;;21.73;6.37;;;4.50;99.90;;;;;;5014868;28;20068;-60
2022/11/21 08:35:37;;;;;;;24.85;6.50;;;4.60;99.90;;;;;;5007379;28;20295;-62
2022/11/21 08:38:05;;;;;;;22.65;6.47;;;4.50;99.90;;;;;;5027890;28;20046;-67
2022/11/21 08:40:34;;;;;;;19.70;5.53;;;4.60;99.90;;;;;;5028013;28;20076;-66
2022/11/21 08:43:07;;;;;;;17.48;5.80;;;4.60;99.90;;;;;;5028092;28;20662;-62
2022/11/21 08:45:37;;;;;;;16.80;5.13;;;4.70;99.90;;;;;;5027132;28;20077;-62
2022/11/21 08:48:13;;;;;;;19.75;5.65;;;4.70;99.90;;;;;;5027931;28;20056;-64
2022/11/21 08:50:41;;;;;;;23.45;7.13;;;4.80;99.90;;;;;;5012355;28;20057;-61
2022/11/21 08:53:09;;;;;;;25.42;6.32;;;4.80;99.90;;;;;;5012623;28;20041;-62
2022/11/21 08:55:36;;;;;;;21.10;5.95;;;4.80;99.90;;;;;;5027729;28;20049;-61
2022/11/21 08:58:04;;;;;;;20.05;5.40;;;4.80;99.90;;;;;;5028244;28;20045;-61
2022/11/21 09:00:32;;;;;;;21.27;6.07;;;4.80;99.90;;;;;;5027722;28;20050;-64
2022/11/21 09:03:04;;;;;;;25.55;5.60;;;4.90;99.90;;;;;;5024580;28;20494;-63
2022/11/21 09:05:34;;;;;;;21.65;4.07;;;4.90;99.90;;;;;;5011089;28;20049;-64
2022/11/21 09:08:02;;;;;;;22.40;5.00;;;4.90;99.90;;;;;;5027363;28;20045;-66
2022/11/21 09:10:29;;;;;;;14.38;4.40;;;4.90;99.90;;;;;;5027714;28;20053;-64
2022/11/21 09:12:58;;;;;;;15.98;4.53;;;4.90;99.90;;;;;;5027545;28;20045;-65
2022/11/21 09:18:12;;;;;;;31.48;4.70;;;5.00;99.90;;;;;;5027592;28;20052;-62
2022/11/21 09:20:41;;;;;;;19.60;5.03;;;4.90;99.90;;;;;;5013682;28;20050;-66
2022/11/21 09:23:11;;;;;;;;;;;5.10;99.90;;;;;;5012598;28;20049;-60
2022/11/21 09:25:39;;;;;;;24.33;4.50;;;5.10;99.90;;;;;;5027749;28;19932;-61
2022/11/21 09:28:09;;;;;;;19.52;4.85;;;5.00;99.90;;;;;;5027223;28;20045;-65
2022/11/21 09:30:37;;;;;;;23.65;4.43;;;5.10;99.90;;;;;;5027885;28;20056;-66
2022/11/21 09:33:13;;;;;;;22.42;3.75;;;5.20;99.90;;;;;;5027647;28;20049;-68
2022/11/21 09:35:41;;;;;;;24.60;4.22;;;5.20;99.90;;;;;;5012962;28;20061;-75
2022/11/21 09:38:08;;;;;;;21.27;3.47;;;5.20;99.90;;;;;;5016246;28;20052;-80
2022/11/21 09:40:42;;;;;;;17.90;3.90;;;5.30;99.90;;;;;;5027588;28;20045;-77
2022/11/21 09:43:34;;;;;;;22.30;4.10;;;5.30;99.90;;;;;;5027486;28;20042;-67
2022/11/21 09:46:12;;;;;;;26.98;4.15;;;5.30;99.90;;;;;;5027475;28;20102;-62
2022/11/21 09:48:57;;;;;;;15.45;3.30;;;5.40;99.90;;;;;;5027182;28;20053;-62
2022/11/21 09:51:28;;;;;;;21.23;4.03;;;5.40;99.90;;;;;;5026365;28;20050;-62
2022/11/21 09:54:12;;;;;;;17.60;3.50;;;5.50;99.90;;;;;;5027590;28;20037;-63
2022/11/21 09:56:41;;;;;;;17.58;3.80;;;5.50;99.90;;;;;;5027607;28;20054;-65
2022/11/21 09:59:32;;;;;;;18.38;3.83;;;5.50;99.90;;;;;;5027222;28;20038;-67
2022/11/21 10:02:01;;;;;;;21.92;3.65;;;5.60;99.90;;;;;;5027070;28;20053;-69
2022/11/21 10:04:30;;;;;;;22.58;4.35;;;5.60;99.90;;;;;;5024842;28;20052;-61
2022/11/21 10:07:10;;;;;;;12.77;4.13;;;5.60;99.90;;;;;;5017084;28;20042;-62
2022/11/21 10:10:09;;;;;;;17.13;3.08;;;5.70;99.90;;;;;;5007732;28;20050;-61
2022/11/21 10:12:45;;;;;;;20.98;2.75;;;5.60;99.90;;;;;;5007841;28;20046;-65
2022/11/21 10:15:41;;;;;;;15.05;2.70;;;5.60;99.90;;;;;;5006481;28;20069;-62
2022/11/21 10:18:30;;;;;;;22.40;3.92;;;5.60;99.90;;;;;;5015785;28;20132;-61
2022/11/21 10:21:33;;;;;;;16.55;3.20;;;5.70;99.90;;;;;;5013722;28;20422;-61
2022/11/21 10:24:21;;;;;;;20.20;3.25;;;5.70;99.90;;;;;;5017395;28;20069;-61
2022/11/21 10:26:59;;;;;;;20.52;3.53;;;5.80;99.90;;;;;;5028169;28;20064;-63
2022/11/21 10:29:33;;;;;;;16.85;3.10;;;5.80;99.90;;;;;;5030700;28;20056;-62
2022/11/21 10:32:18;;;;;;;19.35;2.95;;;5.80;99.90;;;;;;5031278;28;20216;-61
2022/11/21 10:34:49;;;;;;;20.10;3.10;;;5.80;99.90;;;;;;5027467;28;20056;-61
2022/11/21 10:37:24;;;;;;;17.88;3.75;;;5.80;99.90;;;;;;5017351;28;20696;-61
2022/11/21 10:39:55;;;;;;;23.10;5.45;;;5.90;99.90;;;;;;5013614;28;20048;-62
2022/11/21 10:42:40;;;;;;;14.93;3.30;;;5.90;99.90;;;;;;5011092;28;20053;-61
2022/11/21 10:45:21;;;;;;;17.48;3.53;;;5.90;99.90;;;;;;5010843;28;20065;-60
2022/11/21 10:47:52;;;;;;;13.55;3.50;;;5.90;99.90;;;;;;5012893;28;20057;-60
2022/11/21 10:50:38;;;;;;;16.25;3.40;;;6.00;99.90;;;;;;5026171;28;20041;-61
2022/11/21 10:56:14;;;;;;;15.43;2.97;;;5.90;99.90;;;;;;5027018;28;20073;-62
2022/11/21 10:58:48;;;;;;;13.90;2.83;;;6.00;99.90;;;;;;5028820;28;20038;-62
2022/11/21 11:01:21;;;;;;;27.15;3.95;;;5.90;99.90;;;;;;5029939;28;20049;-62
2022/11/21 11:04:10;;;;;;;17.13;3.75;;;5.90;99.90;;;;;;5028929;28;20049;-62
2022/11/21 11:06:58;;;;;;;11.50;2.80;;;5.90;99.90;;;;;;5029074;28;20049;-62
2022/11/21 11:09:30;;;;;;;14.63;3.45;;;5.90;99.90;;;;;;5030083;28;20049;-61
2022/11/21 11:12:16;;;;;;;16.95;3.75;;;5.90;99.90;;;;;;5029842;28;20041;-61
2022/11/21 11:14:54;;;;;;;25.75;2.85;;;5.90;99.90;;;;;;5029895;28;20049;-61
2022/11/21 11:17:33;;;;;;;23.00;3.88;;;5.80;99.90;;;;;;5030206;28;20072;-62
2022/11/21 11:20:26;;;;;;;21.23;2.93;;;5.80;99.90;;;;;;5026552;28;20045;-62
2022/11/21 11:22:54;;;;;;;17.45;3.47;;;5.80;99.90;;;;;;5026653;28;20046;-61
2022/11/21 11:25:22;;;;;;;21.92;3.58;;;5.80;99.90;;;;;;5029781;28;20379;-62
2022/11/21 11:27:49;;;;;;;16.40;3.42;;;5.80;99.90;;;;;;5029658;28;20619;-61
2022/11/21 11:30:18;;;;;;;16.15;2.90;;;5.80;99.90;;;;;;5029479;28;20366;-61
2022/11/21 11:32:46;;;;;;;19.45;3.10;;;5.80;99.90;;;;;;5029503;28;20409;-62
2022/11/21 11:35:32;;;;;;;15.43;2.88;;;5.80;99.90;;;;;;5028551;28;20042;-62
2022/11/21 11:38:03;;;;;;;23.52;3.33;;;5.80;99.90;;;;;;5028524;28;20056;-62
2022/11/21 11:40:43;;;;;;;18.65;3.55;;;5.80;99.90;;;;;;5029395;28;20508;-62
2022/11/21 11:49:17;;;;;;;14.93;3.42;;;5.90;99.90;;;;;;5029411;28;20049;-63
2022/11/21 11:51:54;;;;;;;18.30;3.85;;;5.90;99.90;;;;;;5013482;28;20057;-62
2022/11/21 11:54:46;;;;;;;17.48;3.65;;;5.90;99.90;;;;;;5021421;28;20057;-62
2022/11/21 11:57:16;;;;;;;19.25;4.63;;;5.90;99.90;;;;;;5029174;28;20761;-71
2022/11/21 11:59:48;;;;;;;22.35;3.95;;;5.90;99.90;;;;;;5011958;28;20075;-64
2022/11/21 12:02:19;;;;;;;15.88;2.83;;;5.90;99.90;;;;;;5029843;28;20046;-69
2022/11/21 12:04:58;;;;;;;16.05;2.88;;;5.90;99.90;;;;;;5029099;28;20060;-72
2022/11/21 12:07:33;;;;;;;27.25;3.90;;;5.90;99.90;;;;;;5016691;28;20045;-77
2022/11/21 12:10:30;;;;;;;15.05;3.15;;;5.90;99.90;;;;;;5029151;28;20429;-77
2022/11/21 12:13:09;;;;;;;9.90;2.70;;;6.00;99.90;;;;;;5028836;28;20052;-72
2022/11/21 12:15:48;;;;;;;7.90;2.67;;;5.90;99.90;;;;;;5029119;28;20041;-71
2022/11/21 12:18:19;;;;;;;14.50;3.55;;;6.00;99.90;;;;;;5028419;28;20045;-67
2022/11/21 12:20:55;;;;;;;16.08;2.80;;;6.00;99.90;;;;;;5023497;28;20042;-74
2022/11/21 12:23:44;;;;;;;14.98;3.50;;;6.00;99.90;;;;;;5026588;28;20045;-72
2022/11/21 12:26:11;;;;;;;14.85;2.63;;;6.00;99.90;;;;;;5027257;28;20057;-63
2022/11/21 12:29:14;;;;;;;12.07;2.33;;;5.90;99.90;;;;;;5028333;28;20052;-62
2022/11/21 12:32:29;;;;;;;19.02;2.95;;;6.00;99.90;;;;;;5028768;28;20042;-62
2022/11/21 12:35:25;;;;;;;24.55;3.88;;;6.00;99.90;;;;;;4992719;28;20056;-62
2022/11/21 12:38:14;;;;;;;21.17;4.53;;;6.00;99.90;;;;;;5019916;28;20633;-62
2022/11/21 12:40:51;;;;;;;15.03;3.60;;;6.00;99.90;;;;;;5028555;28;20417;-64
2022/11/21 12:43:24;;;;;;;12.55;3.10;;;6.00;99.90;;;;;;5027038;28;20041;-62
2022/11/21 12:46:14;;;;;;;24.30;4.30;;;6.00;99.90;;;;;;5026755;28;20049;-62
2022/11/21 12:55:08;;;;;;;16.10;2.67;;;6.00;99.90;;;;;;5025059;28;20517;-62
2022/11/21 12:58:06;;;;;;;12.95;3.00;;;6.00;99.90;;;;;;5026735;28;20327;-67
2022/11/21 13:01:00;;;;;;;8.00;2.38;;;6.00;99.90;;;;;;5027129;28;20252;-62
2022/11/21 13:03:40;;;;;;;15.05;3.25;;;6.00;99.90;;;;;;5027004;28;20053;-62
2022/11/21 13:06:22;;;;;;;9.38;2.70;;;6.00;99.90;;;;;;5022918;28;20038;-71
2022/11/21 13:08:53;;;;;;;12.80;3.10;;;6.10;99.90;;;;;;5026672;28;20646;-62
2022/11/21 13:12:00;;;;;;;12.90;2.80;;;6.10;99.90;;;;;;5028022;28;20057;-63
2022/11/21 13:14:36;;;;;;;13.15;2.83;;;6.10;99.90;;;;;;5027435;28;20060;-62
2022/11/21 13:17:26;;;;;;;9.18;2.67;;;6.10;99.90;;;;;;5027993;28;20045;-63
2022/11/21 13:20:01;;;;;;;11.27;3.30;;;6.10;99.90;;;;;;5027951;28;20056;-63
2022/11/21 13:22:35;;;;;;;15.38;2.75;;;6.10;99.90;;;;;;5012382;28;20046;-64
2022/11/21 13:25:08;;;;;;;12.73;2.58;;;6.10;99.90;;;;;;5026103;28;20049;-62
2022/11/21 13:27:39;;;;;;;11.73;2.67;;;6.10;99.90;;;;;;5027518;28;20401;-63
2022/11/21 13:30:08;;;;;;;15.07;3.25;;;6.10;99.90;;;;;;5027590;28;20042;-62
2022/11/21 13:32:36;;;;;;;10.95;2.50;;;6.10;99.90;;;;;;5027930;28;20050;-62
2022/11/21 13:35:18;;;;;;;11.38;2.33;;;6.10;99.90;;;;;;5027409;28;20056;-62